createdAt,value
2018-04-10T00:00:17.429Z,13.56
2018-04-10T00:02:43.268Z,13.53
2018-04-10T00:05:09.100Z,13.53
2018-04-10T00:07:34.954Z,13.54
2018-04-10T00:10:00.802Z,13.46
2018-04-10T00:12:26.676Z,13.42
2018-04-10T00:14:52.505Z,13.39
2018-04-10T00:17:18.374Z,13.41
2018-04-10T00:19:44.225Z,13.34
2018-04-10T00:22:10.065Z,13.39
2018-04-10T00:24:35.909Z,13.41
2018-04-10T00:27:01.753Z,13.41
2018-04-10T00:29:27.602Z,13.34
2018-04-10T00:31:53.443Z,13.28
2018-04-10T00:34:19.280Z,13.25
2018-04-10T00:36:45.109Z,13.18
2018-04-10T00:39:10.972Z,13.21
2018-04-10T00:41:36.820Z,13.11
2018-04-10T00:44:03.187Z,13.12
2018-04-10T00:46:29.042Z,13.12
2018-04-10T00:48:54.895Z,13.09
2018-04-10T00:51:20.742Z,13.09
2018-04-10T00:53:46.577Z,13.08
2018-04-10T00:56:12.414Z,13.12
2018-04-10T00:58:38.247Z,13.17
2018-04-10T01:01:04.110Z,13.22
2018-04-10T01:03:29.967Z,13.20
2018-04-10T01:05:55.798Z,13.15
2018-04-10T01:08:21.640Z,13.14
2018-04-10T01:10:47.471Z,13.05
2018-04-10T01:13:13.325Z,13.01
2018-04-10T01:15:39.183Z,12.95
2018-04-10T01:18:05.040Z,12.89
2018-04-10T01:20:30.886Z,12.87
2018-04-10T01:22:56.734Z,12.87
2018-04-10T01:25:22.576Z,12.89
2018-04-10T01:27:48.434Z,12.91
2018-04-10T01:30:14.256Z,12.91
2018-04-10T01:32:40.085Z,12.91
2018-04-10T01:35:05.956Z,12.92
2018-04-10T01:37:31.814Z,12.90
2018-04-10T01:39:57.663Z,12.84
2018-04-10T01:42:23.521Z,12.79
2018-04-10T01:44:49.371Z,12.76
2018-04-10T01:47:15.244Z,12.81
2018-04-10T01:49:41.118Z,12.83
2018-04-10T01:52:06.942Z,12.84
2018-04-10T01:54:32.768Z,12.80
2018-04-10T01:56:58.631Z,12.84
2018-04-10T01:59:24.485Z,12.86
2018-04-10T02:01:50.355Z,12.83
2018-04-10T02:04:16.217Z,12.80
2018-04-10T02:06:42.066Z,12.79
2018-04-10T02:09:07.918Z,12.76
2018-04-10T02:14:11.491Z,12.66
2018-04-10T02:16:37.370Z,12.64
2018-04-10T02:19:03.252Z,12.60
2018-04-10T02:21:29.093Z,12.51
2018-04-10T02:23:54.960Z,12.43
2018-04-10T02:26:20.817Z,12.35
2018-04-10T02:28:46.675Z,12.22
2018-04-10T02:31:12.543Z,12.17
2018-04-10T02:33:38.425Z,12.13
2018-04-10T02:36:04.265Z,12.05
2018-04-10T02:38:30.105Z,12.05
2018-04-10T02:40:55.979Z,11.98
2018-04-10T02:43:21.831Z,12.03
2018-04-10T02:45:47.694Z,11.98
2018-04-10T02:48:13.526Z,12.00
2018-04-10T02:50:39.377Z,12.04
2018-04-10T02:53:05.248Z,12.08
2018-04-10T02:55:31.101Z,12.08
2018-04-10T02:57:56.959Z,12.07
2018-04-10T03:00:22.792Z,12.12
2018-04-10T03:02:48.653Z,12.16
2018-04-10T03:05:14.505Z,12.23
2018-04-10T03:07:40.363Z,12.26
2018-04-10T03:10:06.254Z,12.30
2018-04-10T03:12:32.076Z,12.35
2018-04-10T03:14:57.922Z,12.37
2018-04-10T03:17:23.782Z,12.38
2018-04-10T03:19:49.632Z,12.38
2018-04-10T03:22:15.474Z,12.39
2018-04-10T03:24:41.330Z,12.37
2018-04-10T03:27:07.201Z,12.41
2018-04-10T03:29:33.072Z,12.46
2018-04-10T03:31:58.930Z,12.49
2018-04-10T03:34:24.764Z,12.42
2018-04-10T03:36:50.623Z,12.29
2018-04-10T03:39:16.472Z,12.18
2018-04-10T03:41:42.326Z,12.18
2018-04-10T03:44:08.166Z,12.18
2018-04-10T03:46:34.034Z,12.15
2018-04-10T03:48:59.893Z,12.13
2018-04-10T03:51:25.748Z,12.08
2018-04-10T03:53:51.590Z,12.14
2018-04-10T03:56:17.433Z,12.10
2018-04-10T03:58:43.282Z,12.02
2018-04-10T04:01:09.115Z,11.98
2018-04-10T04:03:34.950Z,11.96
2018-04-10T04:06:00.783Z,11.91
2018-04-10T04:08:26.627Z,11.92
2018-04-10T04:10:52.471Z,11.87
2018-04-10T04:13:18.348Z,11.87
2018-04-10T04:15:44.192Z,11.88
2018-04-10T04:18:22.330Z,11.88
2018-04-10T04:21:00.586Z,11.83
2018-04-10T04:23:26.490Z,11.86
2018-04-10T04:25:52.348Z,11.89
2018-04-10T04:28:18.195Z,11.87
2018-04-10T04:30:44.060Z,11.85
2018-04-10T04:33:09.932Z,11.83
2018-04-10T04:35:35.792Z,11.84
2018-04-10T04:38:01.620Z,11.85
2018-04-10T04:40:27.469Z,11.83
2018-04-10T04:42:53.327Z,11.80
2018-04-10T04:45:19.199Z,11.81
2018-04-10T04:47:45.051Z,11.84
2018-04-10T04:50:10.904Z,11.84
2018-04-10T04:52:36.750Z,11.83
2018-04-10T04:55:02.596Z,11.91
2018-04-10T04:57:28.410Z,11.94
2018-04-10T04:59:54.275Z,11.97
2018-04-10T05:02:20.144Z,11.93
2018-04-10T05:04:46.011Z,11.90
2018-04-10T05:07:11.860Z,11.81
2018-04-10T05:09:37.708Z,11.85
2018-04-10T05:12:03.550Z,11.77
2018-04-10T05:14:29.398Z,11.79
2018-04-10T05:16:55.254Z,11.78
2018-04-10T05:19:21.082Z,11.79
2018-04-10T05:21:46.930Z,11.77
2018-04-10T05:24:12.778Z,11.77
2018-04-10T05:26:38.665Z,11.76
2018-04-10T05:29:04.517Z,11.68
2018-04-10T05:31:30.358Z,11.66
2018-04-10T05:33:56.238Z,11.72
2018-04-10T05:36:22.110Z,11.75
2018-04-10T05:38:47.950Z,11.78
2018-04-10T05:41:13.787Z,11.78
2018-04-10T05:43:39.661Z,11.79
2018-04-10T05:46:05.504Z,11.80
2018-04-10T05:48:31.346Z,11.84
2018-04-10T05:50:57.189Z,11.88
2018-04-10T05:53:23.032Z,11.95
2018-04-10T05:55:48.880Z,12.06
2018-04-10T05:58:14.738Z,12.08
2018-04-10T06:00:40.615Z,12.18
2018-04-10T06:03:06.481Z,12.18
2018-04-10T06:05:32.349Z,12.27
2018-04-10T06:07:58.240Z,12.35
2018-04-10T06:10:24.061Z,12.39
2018-04-10T06:12:49.938Z,12.41
2018-04-10T06:15:15.792Z,12.43
2018-04-10T06:17:41.653Z,12.44
2018-04-10T06:20:07.519Z,12.49
2018-04-10T06:22:33.392Z,12.48
2018-04-10T06:24:59.220Z,12.56
2018-04-10T06:27:25.073Z,12.61
2018-04-10T06:29:50.898Z,12.65
2018-04-10T06:32:16.792Z,12.76
2018-04-10T06:34:42.664Z,12.81
2018-04-10T06:37:08.519Z,12.83
2018-04-10T06:39:34.387Z,12.87
2018-04-10T06:42:00.246Z,12.95
2018-04-10T06:44:26.094Z,12.98
2018-04-10T06:46:51.924Z,13.08
2018-04-10T06:49:17.775Z,13.08
2018-04-10T06:51:43.603Z,13.08
2018-04-10T06:54:09.460Z,13.11
2018-04-10T06:56:35.287Z,13.21
2018-04-10T06:59:01.105Z,13.23
2018-04-10T07:01:26.958Z,13.24
2018-04-10T07:03:52.801Z,13.27
2018-04-10T07:06:18.667Z,13.29
2018-04-10T07:08:44.524Z,13.33
2018-04-10T07:11:10.370Z,13.43
2018-04-10T07:13:36.206Z,13.51
2018-04-10T07:16:02.038Z,13.58
2018-04-10T07:18:27.889Z,13.66
2018-04-10T07:20:53.748Z,13.65
2018-04-10T07:23:19.617Z,13.69
2018-04-10T07:25:45.453Z,13.73
2018-04-10T07:28:11.331Z,13.82
2018-04-10T07:30:37.164Z,13.94
2018-04-10T07:33:03.015Z,14.03
2018-04-10T07:35:28.870Z,14.08
2018-04-10T07:37:54.707Z,14.10
2018-04-10T07:40:20.584Z,14.19
2018-04-10T07:42:46.445Z,14.27
2018-04-10T07:45:12.298Z,14.36
2018-04-10T07:47:38.131Z,14.39
2018-04-10T07:50:03.960Z,14.27
2018-04-10T07:52:29.829Z,14.34
2018-04-10T07:54:55.674Z,14.39
2018-04-10T07:57:21.522Z,14.48
2018-04-10T07:59:47.355Z,14.48
2018-04-10T08:02:13.198Z,14.57
2018-04-10T08:04:39.058Z,14.56
2018-04-10T08:07:04.908Z,14.72
2018-04-10T08:09:30.777Z,14.77
2018-04-10T08:11:56.665Z,14.81
2018-04-10T08:14:22.521Z,14.78
2018-04-10T08:16:48.375Z,14.89
2018-04-10T08:19:14.222Z,14.90
2018-04-10T08:21:40.065Z,14.92
2018-04-10T08:24:05.917Z,15.01
2018-04-10T08:26:31.799Z,15.13
2018-04-10T08:28:57.610Z,15.17
2018-04-10T08:31:23.465Z,15.26
2018-04-10T08:33:49.318Z,15.20
2018-04-10T08:36:15.148Z,15.35
2018-04-10T08:38:41.016Z,15.50
2018-04-10T08:41:06.875Z,15.42
2018-04-10T08:43:32.751Z,15.42
2018-04-10T08:45:58.621Z,15.45
2018-04-10T08:48:24.455Z,15.62
2018-04-10T08:50:50.286Z,15.85
2018-04-10T08:53:16.151Z,15.95
2018-04-10T08:55:41.964Z,15.90
2018-04-10T08:58:07.859Z,15.97
2018-04-10T09:00:33.707Z,15.99
2018-04-10T09:02:59.548Z,16.17
2018-04-10T09:05:25.401Z,16.23
2018-04-10T09:07:51.255Z,16.22
2018-04-10T09:10:17.098Z,16.35
2018-04-10T09:12:43.002Z,16.28
2018-04-10T09:15:08.869Z,16.35
2018-04-10T09:17:34.710Z,16.46
2018-04-10T09:20:00.553Z,16.55
2018-04-10T09:22:26.387Z,16.65
2018-04-10T09:24:52.227Z,16.63
2018-04-10T09:27:18.062Z,16.65
2018-04-10T09:29:43.959Z,16.74
2018-04-10T09:32:09.811Z,17.01
2018-04-10T09:34:35.666Z,17.08
2018-04-10T09:37:01.518Z,17.02
2018-04-10T09:39:27.354Z,16.98
2018-04-10T09:41:53.189Z,17.20
2018-04-10T09:44:19.033Z,17.08
2018-04-10T09:46:44.889Z,17.28
2018-04-10T09:49:23.007Z,17.46
2018-04-10T09:51:48.868Z,17.52
2018-04-10T09:54:15.704Z,17.65
2018-04-10T09:56:41.541Z,17.68
2018-04-10T09:59:07.396Z,17.68
2018-04-10T10:01:33.249Z,18.00
2018-04-10T10:03:59.092Z,17.93
2018-04-10T10:06:24.933Z,17.97
2018-04-10T10:08:51.422Z,18.22
2018-04-10T10:11:18.223Z,18.25
2018-04-10T10:13:44.104Z,18.36
2018-04-10T10:16:09.977Z,18.30
2018-04-10T10:18:35.821Z,18.51
2018-04-10T10:21:01.666Z,18.65
2018-04-10T10:23:27.513Z,18.74
2018-04-10T10:25:53.346Z,18.89
2018-04-10T10:28:19.205Z,18.88
2018-04-10T10:30:45.047Z,18.82
2018-04-10T10:33:10.912Z,18.95
2018-04-10T10:35:36.775Z,19.21
2018-04-10T10:38:02.685Z,19.30
2018-04-10T10:40:28.533Z,19.45
2018-04-10T10:42:54.407Z,19.58
2018-04-10T10:45:20.263Z,19.84
2018-04-10T10:47:46.126Z,19.84
2018-04-10T10:50:11.968Z,19.88
2018-04-10T10:52:37.817Z,19.99
2018-04-10T10:55:03.685Z,19.90
2018-04-10T10:57:29.536Z,20.06
2018-04-10T10:59:55.399Z,20.19
2018-04-10T11:02:21.258Z,20.23
2018-04-10T11:04:47.105Z,20.18
2018-04-10T11:07:12.961Z,20.35
2018-04-10T11:09:38.832Z,20.52
2018-04-10T11:12:04.668Z,20.80
2018-04-10T11:14:30.506Z,20.99
2018-04-10T11:16:56.369Z,21.10
2018-04-10T11:19:22.222Z,21.48
2018-04-10T11:21:48.078Z,21.85
2018-04-10T11:24:13.914Z,22.19
2018-04-10T11:26:39.774Z,22.04
2018-04-10T11:29:05.620Z,21.79
2018-04-10T11:31:31.761Z,21.96
2018-04-10T11:33:57.627Z,22.56
2018-04-10T11:36:23.458Z,22.61
2018-04-10T11:38:49.296Z,22.50
2018-04-10T11:41:15.143Z,23.03
2018-04-10T11:43:41.032Z,22.76
2018-04-10T11:46:06.899Z,22.73
2018-04-10T11:48:32.740Z,23.25
2018-04-10T11:50:58.590Z,23.71
2018-04-10T11:53:24.425Z,23.59
2018-04-10T11:55:50.283Z,23.03
2018-04-10T11:58:16.134Z,23.69
2018-04-10T12:00:41.983Z,24.06
2018-04-10T12:03:07.835Z,24.64
2018-04-10T12:05:33.659Z,24.83
2018-04-10T12:07:59.523Z,23.86
2018-04-10T12:10:25.435Z,23.53
2018-04-10T12:12:51.291Z,23.74
2018-04-10T12:15:20.368Z,24.23
2018-04-10T12:17:46.293Z,24.49
2018-04-10T12:20:12.133Z,25.07
2018-04-10T12:22:37.983Z,25.64
2018-04-10T12:25:03.857Z,25.68
2018-04-10T12:27:29.730Z,25.91
2018-04-10T12:29:55.585Z,25.89
2018-04-10T12:32:21.483Z,26.02
2018-04-10T12:34:47.342Z,24.94
2018-04-10T12:37:13.199Z,25.31
2018-04-10T12:39:39.027Z,25.65
2018-04-10T12:42:04.926Z,26.55
2018-04-10T12:44:30.774Z,27.03
2018-04-10T12:46:56.631Z,26.97
2018-04-10T12:49:22.482Z,26.35
2018-04-10T12:51:48.338Z,26.73
2018-04-10T12:54:14.176Z,25.66
2018-04-10T12:56:40.018Z,26.63
2018-04-10T12:59:05.887Z,26.80
2018-04-10T13:01:31.697Z,26.62
2018-04-10T13:03:57.570Z,26.75
2018-04-10T13:06:23.441Z,26.67
2018-04-10T13:08:49.291Z,27.19
2018-04-10T13:11:15.151Z,26.82
2018-04-10T13:13:41.815Z,27.18
2018-04-10T13:16:07.865Z,27.17
2018-04-10T13:18:33.706Z,27.25
2018-04-10T13:20:59.565Z,27.07
2018-04-10T13:23:25.403Z,27.24
2018-04-10T13:25:51.246Z,27.79
2018-04-10T13:28:17.115Z,27.35
2018-04-10T13:30:42.967Z,26.99
2018-04-10T13:33:08.834Z,25.67
2018-04-10T13:35:34.691Z,26.09
2018-04-10T13:38:00.588Z,26.56
2018-04-10T13:40:26.456Z,26.23
2018-04-10T13:42:52.279Z,26.30
2018-04-10T13:45:18.135Z,26.01
2018-04-10T13:47:44.868Z,26.46
2018-04-10T13:50:10.721Z,26.76
2018-04-10T13:52:36.580Z,27.00
2018-04-10T13:55:02.441Z,26.60
2018-04-10T13:57:28.276Z,27.03
2018-04-10T13:59:54.474Z,27.21
2018-04-10T14:02:20.341Z,26.44
2018-04-10T14:04:46.189Z,26.75
2018-04-10T14:07:12.067Z,26.33
2018-04-10T14:09:37.919Z,26.48
2018-04-10T14:12:03.787Z,27.09
2018-04-10T14:14:29.639Z,25.97
2018-04-10T14:16:55.518Z,26.37
2018-04-10T14:19:21.389Z,26.83
2018-04-10T14:21:47.257Z,26.83
2018-04-10T14:24:13.107Z,27.41
2018-04-10T14:26:38.967Z,27.82
2018-04-10T14:29:04.853Z,27.25
2018-04-10T14:31:30.709Z,26.17
2018-04-10T14:33:56.578Z,26.20
2018-04-10T14:36:22.430Z,26.73
2018-04-10T14:38:48.279Z,26.87
2018-04-10T14:41:14.139Z,26.40
2018-04-10T14:43:39.988Z,26.54
2018-04-10T14:46:05.910Z,26.40
2018-04-10T14:48:31.766Z,26.09
2018-04-10T14:50:57.619Z,25.94
2018-04-10T14:53:23.493Z,25.97
2018-04-10T14:55:49.363Z,26.20
2018-04-10T14:58:15.275Z,26.93
2018-04-10T15:00:41.122Z,27.05
2018-04-10T15:03:07.017Z,27.07
2018-04-10T15:05:32.859Z,26.60
2018-04-10T15:07:58.716Z,26.87
2018-04-10T15:10:24.568Z,26.18
2018-04-10T15:12:50.406Z,26.35
2018-04-10T15:15:16.333Z,26.26
2018-04-10T15:17:42.194Z,26.81
2018-04-10T15:20:08.052Z,26.15
2018-04-10T15:22:33.930Z,25.42
2018-04-10T15:24:59.764Z,26.52
2018-04-10T15:27:25.662Z,26.01
2018-04-10T15:29:51.544Z,26.07
2018-04-10T15:32:17.415Z,25.93
2018-04-10T15:34:43.250Z,25.62
2018-04-10T15:37:09.113Z,25.87
2018-04-10T15:39:34.985Z,25.82
2018-04-10T15:42:00.826Z,25.80
2018-04-10T15:44:26.706Z,25.74
2018-04-10T15:46:52.553Z,25.71
2018-04-10T15:49:18.415Z,25.81
2018-04-10T15:51:44.263Z,25.77
2018-04-10T15:54:10.119Z,25.68
2018-04-10T15:56:35.991Z,25.80
2018-04-10T15:59:01.818Z,25.83
2018-04-10T16:01:27.671Z,25.63
2018-04-10T16:03:53.545Z,25.36
2018-04-10T16:06:19.411Z,25.66
2018-04-10T16:08:45.275Z,25.79
2018-04-10T16:11:11.109Z,25.74
2018-04-10T16:13:37.007Z,25.95
2018-04-10T16:16:02.850Z,25.86
2018-04-10T16:18:28.755Z,25.66
2018-04-10T16:20:54.573Z,25.74
2018-04-10T16:23:20.463Z,25.69
2018-04-10T16:25:46.309Z,25.54
2018-04-10T16:28:27.142Z,25.94
2018-04-10T16:30:53.015Z,25.72
2018-04-10T16:33:18.873Z,25.78
2018-04-10T16:35:44.729Z,25.51
2018-04-10T16:38:10.584Z,25.45
2018-04-10T16:40:36.465Z,25.56
2018-04-10T16:43:02.328Z,25.50
2018-04-10T16:45:28.281Z,24.71
2018-04-10T16:47:54.131Z,25.09
2018-04-10T16:50:19.957Z,24.69
2018-04-10T16:52:45.817Z,24.54
2018-04-10T16:55:11.681Z,23.82
2018-04-10T16:57:37.567Z,23.45
2018-04-10T17:00:03.422Z,22.69
2018-04-10T17:02:29.307Z,22.21
2018-04-10T17:04:55.166Z,22.07
2018-04-10T17:07:20.997Z,21.96
2018-04-10T17:09:46.923Z,21.87
2018-04-10T17:12:16.533Z,21.78
2018-04-10T17:14:42.537Z,21.52
2018-04-10T17:17:08.439Z,21.44
2018-04-10T17:19:34.392Z,21.42
2018-04-10T17:22:00.293Z,21.31
2018-04-10T17:24:26.237Z,21.16
2018-04-10T17:26:52.136Z,21.04
2018-04-10T17:29:18.060Z,20.93
2018-04-10T17:31:44.016Z,20.83
2018-04-10T17:34:09.979Z,20.67
2018-04-10T17:36:35.880Z,20.63
2018-04-10T17:39:01.832Z,20.45
2018-04-10T17:41:27.768Z,20.22
2018-04-10T17:43:53.656Z,20.18
2018-04-10T17:46:19.529Z,20.00
2018-04-10T17:48:45.385Z,19.89
2018-04-10T17:51:11.305Z,19.74
2018-04-10T17:53:38.241Z,19.50
2018-04-10T17:56:04.153Z,19.37
2018-04-10T17:58:30.128Z,19.28
2018-04-10T18:00:56.073Z,19.18
2018-04-10T18:03:21.990Z,19.03
2018-04-10T18:05:47.941Z,18.90
2018-04-10T18:08:13.852Z,18.81
2018-04-10T18:10:40.099Z,18.70
2018-04-10T18:13:06.075Z,18.57
2018-04-10T18:15:31.995Z,18.47
2018-04-10T18:17:58.892Z,18.39
2018-04-10T18:20:24.785Z,18.39
2018-04-10T18:22:50.803Z,18.25
2018-04-10T18:25:16.746Z,18.17
2018-04-10T18:27:42.650Z,18.06
2018-04-10T18:30:08.532Z,17.91
2018-04-10T18:32:34.555Z,17.86
2018-04-10T18:35:00.777Z,17.76
2018-04-10T18:37:26.792Z,17.77
2018-04-10T18:39:52.764Z,17.59
2018-04-10T18:42:18.620Z,17.57
2018-04-10T18:44:44.543Z,17.32
2018-04-10T18:47:10.422Z,17.19
2018-04-10T18:49:36.389Z,17.17
2018-04-10T18:52:02.318Z,17.08
2018-04-10T18:54:28.262Z,17.00
2018-04-10T18:56:54.226Z,16.91
2018-04-10T18:59:20.159Z,16.87
2018-04-10T19:01:46.190Z,16.77
2018-04-10T19:04:12.087Z,16.57
2018-04-10T19:06:37.968Z,16.67
2018-04-10T19:09:04.834Z,16.64
2018-04-10T19:11:30.746Z,16.61
2018-04-10T19:13:56.716Z,16.54
2018-04-10T19:16:22.604Z,16.56
2018-04-10T19:18:48.543Z,16.56
2018-04-10T19:21:16.722Z,16.51
2018-04-10T19:23:42.722Z,16.43
2018-04-10T19:26:08.694Z,16.18
2018-04-10T19:28:35.524Z,16.12
2018-04-10T19:31:01.508Z,16.12
2018-04-10T19:33:27.399Z,16.02
2018-04-10T19:35:53.326Z,15.93
2018-04-10T19:38:19.213Z,15.89
2018-04-10T19:40:45.163Z,15.80
2018-04-10T19:43:11.069Z,15.86
2018-04-10T19:45:38.598Z,15.75
2018-04-10T19:48:04.502Z,15.65
2018-04-10T19:50:30.392Z,15.65
2018-04-10T19:52:56.259Z,15.56
2018-04-10T19:55:23.017Z,15.23
2018-04-10T19:57:48.915Z,15.29
2018-04-10T20:00:14.832Z,15.14
2018-04-10T20:02:40.794Z,14.99
2018-04-10T20:05:06.773Z,14.83
2018-04-10T20:07:32.791Z,14.72
2018-04-10T20:09:58.790Z,14.68
2018-04-10T20:12:24.720Z,14.48
2018-04-10T20:14:50.626Z,14.37
2018-04-10T20:17:16.751Z,14.37
2018-04-10T20:19:42.675Z,14.25
2018-04-10T20:22:09.315Z,14.13
2018-04-10T20:24:36.213Z,13.94
2018-04-10T20:27:03.038Z,13.83
2018-04-10T20:29:28.959Z,13.73
2018-04-10T20:31:54.993Z,13.63
2018-04-10T20:34:21.003Z,13.59
2018-04-10T20:36:46.838Z,13.44
2018-04-10T20:39:12.781Z,13.46
2018-04-10T20:41:38.671Z,13.30
2018-04-10T20:44:05.308Z,13.35
2018-04-10T20:46:31.200Z,13.04
2018-04-10T20:48:57.108Z,13.12
2018-04-10T20:51:23.012Z,13.03
2018-04-10T20:53:48.960Z,13.09
2018-04-10T20:56:14.843Z,12.85
2018-04-10T20:58:40.822Z,12.92
2018-04-10T21:01:06.720Z,12.74
2018-04-10T21:03:32.638Z,12.58
2018-04-10T21:05:58.556Z,12.52
2018-04-10T21:08:24.409Z,12.59
2018-04-10T21:10:50.285Z,12.39
2018-04-10T21:13:16.175Z,12.29
2018-04-10T21:15:42.065Z,12.19
2018-04-10T21:18:07.937Z,12.21
2018-04-10T21:20:33.826Z,12.15
2018-04-10T21:22:59.662Z,11.94
2018-04-10T21:25:25.517Z,11.97
2018-04-10T21:27:51.405Z,11.93
2018-04-10T21:30:17.296Z,11.81
2018-04-10T21:32:43.139Z,11.75
2018-04-10T21:35:09.017Z,11.67
2018-04-10T21:37:34.868Z,11.61
2018-04-10T21:40:00.743Z,11.78
2018-04-10T21:42:26.633Z,11.52
2018-04-10T21:44:52.485Z,11.44
2018-04-10T21:47:18.375Z,11.48
2018-04-10T21:49:44.222Z,11.45
2018-04-10T21:52:10.072Z,11.30
2018-04-10T21:54:35.905Z,11.14
2018-04-10T21:57:01.796Z,11.13
2018-04-10T21:59:27.690Z,11.09
2018-04-10T22:01:53.537Z,11.15
2018-04-10T22:04:19.354Z,10.98
2018-04-10T22:06:45.235Z,10.93
2018-04-10T22:09:11.094Z,10.95
2018-04-10T22:11:36.957Z,10.98
2018-04-10T22:14:02.832Z,10.97
2018-04-10T22:16:28.665Z,10.86
2018-04-10T22:18:54.501Z,10.79
2018-04-10T22:21:20.362Z,10.78
2018-04-10T22:23:46.205Z,10.83
2018-04-10T22:26:12.055Z,10.75
2018-04-10T22:28:37.906Z,10.81
2018-04-10T22:31:03.750Z,10.87
2018-04-10T22:33:29.612Z,10.79
2018-04-10T22:35:55.451Z,10.74
2018-04-10T22:38:21.321Z,10.67
2018-04-10T22:40:47.164Z,10.55
2018-04-10T22:43:13.041Z,10.52
2018-04-10T22:45:38.897Z,10.46
2018-04-10T22:48:04.764Z,10.43
2018-04-10T22:50:30.636Z,10.42
2018-04-10T22:52:56.483Z,10.43
2018-04-10T22:55:22.355Z,10.29
2018-04-10T22:57:48.223Z,10.30
2018-04-10T23:00:14.145Z,10.22
2018-04-10T23:02:39.993Z,10.12
2018-04-10T23:05:05.847Z,10.14
2018-04-10T23:07:31.732Z,10.06
2018-04-10T23:09:57.617Z,10.07
2018-04-10T23:12:23.502Z,10.16
2018-04-10T23:14:49.363Z,10.05
2018-04-10T23:17:15.231Z,9.99
2018-04-10T23:19:41.097Z,10.03
2018-04-10T23:22:06.946Z,9.96
2018-04-10T23:24:32.796Z,9.80
2018-04-10T23:26:58.672Z,9.79
2018-04-10T23:29:24.532Z,9.85
2018-04-10T23:31:50.412Z,9.82
2018-04-10T23:34:16.254Z,9.77
2018-04-10T23:36:42.120Z,9.80
2018-04-10T23:39:07.996Z,9.91
2018-04-10T23:41:33.848Z,9.98
2018-04-10T23:43:59.720Z,10.04
2018-04-10T23:46:25.569Z,9.86
2018-04-10T23:48:51.463Z,9.74
2018-04-10T23:51:17.312Z,9.66
2018-04-10T23:53:43.157Z,9.65
2018-04-10T23:56:09.011Z,9.58
2018-04-10T23:58:34.867Z,9.72
